KFRI/FRI METAR and TAF weather

Enter ICAO airport designator
Station Type Date Time Source
KFRI METAR 2020/02/24 23:56 UTC NOAA

KFRI 242356Z AUTO 01007KT 10SM BKN080 OVC090 09/01 A2981 RMK AO2 SLP097 T00910010 10095 20066 52017


Station Type Date Time Source
KFRI Decoded METAR 2020/02/24 23:56 UTC NOAA

Fort Riley, Marshall AAF Ft Riley, KS, United States (KFRI) 39-03-20N 096-45-51W
Feb 24, 2020 - 06:56 PM EST / 2020.02.24 2356 UTC
Wind: from the N (010 degrees) at 8 MPH (7 KT):0
Visibility: 10 mile(s):0
Sky conditions: overcast
Temperature: 48.4 F (9.1 C)
Dew Point: 33.8 F (1.0 C)
Relative Humidity: 56%
Pressure (altimeter): 29.81 in. Hg (1009 hPa)
Pressure tendency: 0.05 inches (1.7 hPa) higher than three hours ago
ob: KFRI 242356Z AUTO 01007KT 10SM BKN080 OVC090 09/01 A2981 RMK AO2 SLP097 T00910010 10095 20066 52017
cycle: 0

Station Type Date Time Source
KFRI TAF 2020/02/24 21:12 UTC NOAA

TAF KFRI 242100Z 2421/2603 01012KT 9999 SCT030 OVC085 510053 QNH2975INS
BECMG 2423/2424 01006KT 9999 BKN025 510053 QNH2977INS
BECMG 2501/2502 02006KT 9999 FEW030 SCT045 BKN050 QNH2983INS
BECMG 2510/2511 VRB06KT 9999 BKN013 QNH2990INS
BECMG 2515/2516 02010G15KT 6000 -SNRA BKN007 OVC025 QNH3002INS
BECMG 2517/2518 02010G20KT 9000 -DZ OVC020 510013 QNH3004INS
BECMG 2519/2520 01010G25KT 8000 -RA BKN020 OVC035 510013 QNH3007INS
BECMG 2521/2522 01020G25KT 6000 -SN BKN020 OVC030 510013 QNH3011INS
BECMG 2522/2523 01010G25KT 6000 -SN BKN022 OVC025 510013 QNH3013INS TX09/2422Z TN00/2515Z

Example: see airport list